地図

経路データ

SID SEASON NUMBER BASIN SUBBASIN NAME ISO_TIME NATURE LAT LON WMO_WIND WMO_PRES WMO_AGENCY TRACK_TYPE DIST2LAND LANDFALL IFLAG USA_AGENCY USA_ATCF_ID USA_LAT USA_LON USA_RECORD USA_STATUS USA_WIND USA_PRES USA_SSHS USA_R34_NE USA_R34_SE USA_R34_SW USA_R34_NW USA_R50_NE USA_R50_SE USA_R50_SW USA_R50_NW USA_R64_NE USA_R64_SE USA_R64_SW USA_R64_NW USA_POCI USA_ROCI USA_RMW USA_EYE TOKYO_LAT TOKYO_LON TOKYO_GRADE TOKYO_WIND TOKYO_PRES TOKYO_R50_DIR TOKYO_R50_LONG TOKYO_R50_SHORT TOKYO_R30_DIR TOKYO_R30_LONG TOKYO_R30_SHORT TOKYO_LAND CMA_LAT CMA_LON CMA_CAT CMA_WIND CMA_PRES HKO_LAT HKO_LON HKO_CAT HKO_WIND HKO_PRES NEWDELHI_LAT NEWDELHI_LON NEWDELHI_GRADE NEWDELHI_WIND NEWDELHI_PRES NEWDELHI_CI NEWDELHI_DP NEWDELHI_POCI REUNION_LAT REUNION_LON REUNION_TYPE REUNION_WIND REUNION_PRES REUNION_TNUM REUNION_CI REUNION_RMW REUNION_R34_NE REUNION_R34_SE REUNION_R34_SW REUNION_R34_NW REUNION_R50_NE REUNION_R50_SE REUNION_R50_SW REUNION_R50_NW REUNION_R64_NE REUNION_R64_SE REUNION_R64_SW REUNION_R64_NW BOM_LAT BOM_LON BOM_TYPE BOM_WIND BOM_PRES BOM_TNUM BOM_CI BOM_RMW BOM_R34_NE BOM_R34_SE BOM_R34_SW BOM_R34_NW BOM_R50_NE BOM_R50_SE BOM_R50_SW BOM_R50_NW BOM_R64_NE BOM_R64_SE BOM_R64_SW BOM_R64_NW BOM_ROCI BOM_POCI BOM_EYE BOM_POS_METHOD BOM_PRES_METHOD NADI_LAT NADI_LON NADI_CAT NADI_WIND NADI_PRES WELLINGTON_LAT WELLINGTON_LON WELLINGTON_WIND WELLINGTON_PRES DS824_LAT DS824_LON DS824_STAGE DS824_WIND DS824_PRES TD9636_LAT TD9636_LON TD9636_STAGE TD9636_WIND TD9636_PRES TD9635_LAT TD9635_LON TD9635_WIND TD9635_PRES TD9635_ROCI NEUMANN_LAT NEUMANN_LON NEUMANN_CLASS NEUMANN_WIND NEUMANN_PRES MLC_LAT MLC_LON MLC_CLASS MLC_WIND MLC_PRES USA_GUST BOM_GUST BOM_GUST_PER REUNION_GUST REUNION_GUST_PER USA_SEAHGT USA_SEARAD_NE USA_SEARAD_SE USA_SEARAD_SW USA_SEARAD_NW STORM_SPEED STORM_DIR
1963221N20089 1963 70 NI BB NOT_NAMED 1963-08-08 18:00:00 TS 19.6000 89.0000 main 223 212 O________O____ jtwc_io IO071963 19.6000 89.0000 -1 19.6000 89.0000 TC 2 28
1963221N20089 1963 70 NI BB NOT_NAMED 1963-08-08 21:00:00 TS 19.6700 89.0400 main 212 201 P________P____ IO071963 19.6700 89.0400 -1 19.6700 89.0400 TC 2 8
1963221N20089 1963 70 NI BB NOT_NAMED 1963-08-09 00:00:00 TS 19.8000 89.0000 main 201 178 O________O____ jtwc_io IO071963 19.8000 89.0000 -1 19.8000 89.0000 TC 25 4 330
1963221N20089 1963 70 NI BB NOT_NAMED 1963-08-09 03:00:00 TS 20.0355 88.8153 main 179 134 P________PO___ IO071963 20.0399 88.8172 -1 20.0399 88.8172 TC 25 20.0000 88.8000 1 8 321
1963221N20089 1963 70 NI BB NOT_NAMED 1963-08-09 06:00:00 TS 20.4187 88.4756 main 134 78 O________OP___ jtwc_io IO071963 20.4000 88.5000 -1 20.4000 88.5000 TC 25 20.4933 88.3779 1 12 320
1963221N20089 1963 70 NI BB NOT_NAMED 1963-08-09 09:00:00 TS 20.9217 88.0296 main 80 30 P________PP___ IO071963 20.9078 88.0507 -1 20.9078 88.0507 TC 25 20.9589 87.9733 1 13 320
1963221N20089 1963 70 NI BB NOT_NAMED 1963-08-09 12:00:00 TS 21.3900 87.6023 main 30 0 O________OP___ jtwc_io IO071963 21.4000 87.6000 -1 21.4000 87.6000 TC 25 21.3699 87.6070 1 10 319
1963221N20089 1963 70 NI BB NOT_NAMED 1963-08-09 15:00:00 TS 21.7015 87.3080 main 0 0 P________PO___ IO071963 21.7023 87.3121 -1 21.7023 87.3121 TC 25 21.7000 87.3000 1 7 317
1963221N20089 1963 70 NI BB NOT_NAMED 1963-08-09 18:00:00 TS 21.9108 87.0882 main 0 0 O________OP___ jtwc_io IO071963 21.9000 87.1000 -1 21.9000 87.1000 TC 25 21.9324 87.0646 1 5 314
1963221N20089 1963 70 NI BB NOT_NAMED 1963-08-09 21:00:00 TS 22.0780 86.8919 main 0 0 P________PP___ IO071963 22.0724 86.8999 -1 22.0724 86.8999 TC 25 22.0891 86.8759 1 5 309
1963221N20089 1963 70 NI BB NOT_NAMED 1963-08-10 00:00:00 TS 22.2004 86.6998 main 0 0 O________OP___ jtwc_io IO071963 22.2000 86.7000 -1 22.2000 86.7000 TC 25 22.2013 86.6993 1 4 300
1963221N20089 1963 70 NI BB NOT_NAMED 1963-08-10 03:00:00 TS 22.3000 86.4766 main 0 0 P________PO___ IO071963 22.3000 86.4649 -1 22.3000 86.4649 TC 25 22.3000 86.5000 1 5 295
1963221N20089 1963 70 NI BB NOT_NAMED 1963-08-10 06:00:00 TS 22.4108 86.2082 main 0 0 O________OP___ jtwc_io IO071963 22.4000 86.2000 -1 22.4000 86.2000 TC 25 22.4323 86.2246 1 6 296
1963221N20089 1963 70 NI BB NOT_NAMED 1963-08-10 09:00:00 TS 22.5525 85.9125 main 0 0 P________PP___ IO071963 22.5500 85.9075 -1 22.5500 85.9075 TC 25 22.5577 85.9224 1 6 297
1963221N20089 1963 70 NI BB NOT_NAMED 1963-08-10 12:00:00 TS 22.6931 85.6030 main 0 0 O________OP___ jtwc_io IO071963 22.7000 85.6000 -1 22.7000 85.6000 TC 25 22.6791 85.6090 1 6 294
1963221N20089 1963 70 NI BB NOT_NAMED 1963-08-10 15:00:00 TS 22.8000 85.2949 main 0 0 P________PO___ IO071963 22.8000 85.2924 -1 22.8000 85.2924 TC 25 22.8000 85.3000 1 6 292
1963221N20089 1963 70 NI BB NOT_NAMED 1963-08-10 18:00:00 TS 22.9065 85.0287 main 0 0 O________OP___ jtwc_io IO071963 22.9000 85.0000 -1 22.9000 85.0000 TC 25 22.9195 85.0860 1 5 298
1963221N20089 1963 70 NI BB NOT_NAMED 1963-08-10 21:00:00 TS 23.0466 84.7995 main 0 0 P________PP___ IO071963 23.0498 84.7649 -1 23.0498 84.7649 TC 25 23.0402 84.8687 1 5 302
1963221N20089 1963 70 NI BB NOT_NAMED 1963-08-11 00:00:00 TS 23.1886 84.5307 main 0 0 O________OP___ jtwc_io IO071963 23.2000 84.5000 -1 23.2000 84.5000 TC 25 23.1659 84.5921 1 6 294
1963221N20089 1963 70 NI BB NOT_NAMED 1963-08-11 03:00:00 TS 23.2996 84.1881 main 0 0 P________PO___ IO071963 23.2994 84.1822 -1 23.2994 84.1822 TC 25 23.3000 84.2000 1 8 286
1963221N20089 1963 70 NI BB NOT_NAMED 1963-08-11 06:00:00 TS 23.4109 83.6633 main 0 0 O________OP___ jtwc_io IO071963 23.4000 83.7000 -1 23.4000 83.7000 TC 25 23.4327 83.5898 1 12 282
1963221N20089 1963 70 NI BB NOT_NAMED 1963-08-11 09:00:00 TS 23.5482 82.9092 main 0 0 P________PP___ IO071963 23.5358 82.9301 -1 23.5358 82.9301 TC 25 23.5729 82.8676 1 15 282
1963221N20089 1963 70 NI BB NOT_NAMED 1963-08-11 12:00:00 TS 23.7088 82.1038 main 0 0 O________OP___ jtwc_io IO071963 23.7000 82.1000 -1 23.7000 82.1000 TC 25 23.7264 82.1115 1 14 284
1963221N20089 1963 70 NI BB NOT_NAMED 1963-08-11 15:00:00 TS 23.8947 81.4366 main 0 0 P________PO___ IO071963 23.8920 81.4549 -1 23.8920 81.4549 TC 25 23.9000 81.4000 1 12 289
1963221N20089 1963 70 NI BB NOT_NAMED 1963-08-11 18:00:00 TS 24.0899 80.8738 main 0 0 O________OP___ jtwc_io IO071963 24.1000 80.9000 -1 24.1000 80.9000 TC 25 24.0698 80.8213 1 11 291
1963221N20089 1963 70 NI BB NOT_NAMED 1963-08-11 21:00:00 TS 24.2736 80.3518 main 0 0 P________PP___ IO071963 24.2773 80.3771 -1 24.2773 80.3771 TC 25 24.2662 80.3012 1 10 294
1963221N20089 1963 70 NI BB NOT_NAMED 1963-08-12 00:00:00 TS 24.5015 79.8768 main 0 0 O________OP___ jtwc_io IO071963 24.5000 79.9000 -1 24.5000 79.9000 TC 25 24.5045 79.8305 1 10 302
1963221N20089 1963 70 NI BB NOT_NAMED 1963-08-12 03:00:00 TS 24.8032 79.4232 main 0 0 P________PO___ IO071963 24.8049 79.4348 -1 24.8049 79.4348 TC 25 24.8000 79.4000 1 11 311
1963221N20089 1963 70 NI BB NOT_NAMED 1963-08-12 06:00:00 TS 25.2012 78.9859 main 0 0 O________OP___ jtwc_io IO071963 25.2000 79.0000 -1 25.2000 79.0000 TC 25 25.2037 78.9577 1 12 319
1963221N20089 1963 70 NI BB NOT_NAMED 1963-08-12 09:00:00 TS 25.6957 78.5650 main 0 0 P________PP___ IO071963 25.7150 78.5704 -1 25.7150 78.5704 TC 25 25.6572 78.5542 1 12 324
1963221N20089 1963 70 NI BB NOT_NAMED 1963-08-12 12:00:00 TS 26.1690 78.1995 main 0 0 O________OP___ jtwc_io IO071963 26.2000 78.2000 -1 26.2000 78.2000 TC 25 26.1071 78.1984 1 10 324
1963221N20089 1963 70 NI AS NOT_NAMED 1963-08-12 15:00:00 TS 26.4966 77.9080 main 0 0 P________PO___ IO071963 26.4949 77.9120 -1 26.4949 77.9120 TC 25 26.5000 77.9000 1 7 320
1963221N20089 1963 70 NI AS NOT_NAMED 1963-08-12 18:00:00 TS 26.7213 77.6900 main 0 0 O________OP___ jtwc_io IO071963 26.7000 77.7000 -1 26.7000 77.7000 TC 25 26.7640 77.6699 1 6 322
1963221N20089 1963 70 NI AS NOT_NAMED 1963-08-12 21:00:00 TS 26.9272 77.5267 main 0 0 P________PP___ IO071963 26.9074 77.5423 -1 26.9074 77.5423 TC 25 26.9667 77.4955 1 5 325
1963221N20089 1963 70 NI AS NOT_NAMED 1963-08-13 00:00:00 TS 27.1120 77.3828 main 0 0 O________OP___ jtwc_io IO071963 27.1000 77.4000 -1 27.1000 77.4000 TC 25 27.1360 77.3484 1 5 323
1963221N20089 1963 70 NI AS NOT_NAMED 1963-08-13 03:00:00 TS 27.3000 77.2050 main 0 0 P________PO___ IO071963 27.3000 77.2075 -1 27.3000 77.2075 TC 25 27.3000 77.2000 1 5 319
1963221N20089 1963 70 NI AS NOT_NAMED 1963-08-13 06:00:00 TS 27.5082 76.9957 main 0 0 O________OP___ jtwc_io IO071963 27.5000 77.0000 -1 27.5000 77.0000 TC 25 27.5245 76.9872 1 6 318
1963221N20089 1963 70 NI AS NOT_NAMED 1963-08-13 09:00:00 TS 27.7201 76.7852 main 0 0 P________PP___ IO071963 27.7075 76.7925 -1 27.7075 76.7925 TC 25 27.7452 76.7705 1 5 318
1963221N20089 1963 70 NI AS NOT_NAMED 1963-08-13 12:00:00 TS 27.9144 76.5895 main 0 0 O________OP___ jtwc_io IO071963 27.9000 76.6000 -1 27.9000 76.6000 TC 25 27.9433 76.5685 1 5 319
1963221N20089 1963 70 NI AS NOT_NAMED 1963-08-13 15:00:00 TS 28.0867 76.4183 main 0 0 P________PO___ IO071963 28.0800 76.4275 -1 28.0800 76.4275 TC 25 28.1000 76.4000 1 4 317
1963221N20089 1963 70 NI AS NOT_NAMED 1963-08-13 18:00:00 TS 28.1908 76.3016 main 0 0 O________OP___ jtwc_io IO071963 28.2000 76.3000 -1 28.2000 76.3000 TC 25 28.1725 76.3046 1 2 307
1963221N20089 1963 70 NI AS NOT_NAMED 1963-08-13 21:00:00 TS 28.2023 76.2471 main 0 0 P________PP___ IO071963 28.1999 76.2499 -1 28.1999 76.2499 TC 25 28.2071 76.2416 1 1 283
1963221N20089 1963 70 NI AS NOT_NAMED 1963-08-14 00:00:00 TS 28.2127 76.1943 main 0 0 O________OP___ jtwc_io IO071963 28.2000 76.2000 -1 28.2000 76.2000 TC 25 28.2382 76.1828 1 2 308
1963221N20089 1963 70 NI AS NOT_NAMED 1963-08-14 03:00:00 TS 28.3183 76.0767 main 0 0 P________PO___ IO071963 28.3275 76.0651 -1 28.3275 76.0651 TC 25 28.3000 76.1000 1 4 318
1963221N20089 1963 70 NI AS NOT_NAMED 1963-08-14 06:00:00 TS 28.4852 75.9140 main 0 0 O________OP___ jtwc_io IO071963 28.5000 75.9000 -1 28.5000 75.9000 TC 25 28.4555 75.9421 1 4 319
1963221N20089 1963 70 NI AS NOT_NAMED 1963-08-14 09:00:00 TS 28.6476 75.7527 main 0 0 P________PP___ IO071963 28.6500 75.7500 -1 28.6500 75.7500 TC 25 28.6428 75.7582 1 4 319
1963221N20089 1963 70 NI AS NOT_NAMED 1963-08-14 12:00:00 TS 28.8112 75.5901 main 0 0 O________OP___ jtwc_io IO071963 28.8000 75.6000 -1 28.8000 75.6000 TC 25 28.8336 75.5702 1 4 319
1963221N20089 1963 70 NI AS NOT_NAMED 1963-08-14 15:00:00 TS 28.9717 75.4283 main 0 0 P________PO___ IO071963 28.9575 75.4425 -1 28.9575 75.4425 TC 25 29.0000 75.4000 1 4 318
1963221N20089 1963 70 NI AS NOT_NAMED 1963-08-14 18:00:00 TS 29.1083 75.2858 main 0 0 O________OP___ jtwc_io IO071963 29.1000 75.3000 -1 29.1000 75.3000 TC 25 29.1208 75.2646 1 3 317
1963221N20089 1963 70 NI AS NOT_NAMED 1963-08-14 21:00:00 TS 29.2067 75.1769 main 0 0 P________PP___ IO071963 29.2100 75.1900 -1 29.2100 75.1900 TC 25 29.2023 75.1595 1 2 314
1963221N20089 1963 70 NI AS NOT_NAMED 1963-08-15 00:00:00 TS 29.2789 75.0873 main 0 0 O________OP___ jtwc_io IO071963 29.3000 75.1000 -1 29.3000 75.1000 TC 25 29.2577 75.0747 1 2 301
1963221N20089 1963 70 NI AS NOT_NAMED 1963-08-15 03:00:00 NR 29.3000 75.0000 main 0 __________O___ IO071963 -1 TC 29.3000 75.0000 1 2 285

IBTrACS Databaseについて

本データベースは、米国NOAAが公開する1842年以降の世界の熱帯低気圧のベストトラックデータアーカイブInternational Best Track Archive for Climate Stewardship (IBTrACS)を、ウェブで閲覧しやすい形式に変換したものです。

最終更新日:2021-12-08